sensor_id;sensor_type;location;lat;lon;timestamp;temperature;humidity
1626;DHT22;806;48.770;9.156;2022-12-10T00:02:25;3.40;99.90
1626;DHT22;806;48.770;9.156;2022-12-10T00:04:54;3.40;99.90
1626;DHT22;806;48.770;9.156;2022-12-10T00:07:20;3.40;99.90
1626;DHT22;806;48.770;9.156;2022-12-10T00:09:47;3.70;99.90
1626;DHT22;806;48.770;9.156;2022-12-10T00:12:14;3.80;99.90
1626;DHT22;806;48.770;9.156;2022-12-10T00:14:41;3.60;99.90
1626;DHT22;806;48.770;9.156;2022-12-10T00:17:08;3.50;99.90
1626;DHT22;806;48.770;9.156;2022-12-10T00:19:35;3.50;99.90
1626;DHT22;806;48.770;9.156;2022-12-10T00:22:03;3.40;99.90
1626;DHT22;806;48.770;9.156;2022-12-10T00:24:30;3.40;99.90
1626;DHT22;806;48.770;9.156;2022-12-10T00:26:57;3.40;99.90
1626;DHT22;806;48.770;9.156;2022-12-10T00:29:24;3.30;99.90
1626;DHT22;806;48.770;9.156;2022-12-10T00:31:51;3.30;99.90
1626;DHT22;806;48.770;9.156;2022-12-10T00:34:17;3.30;99.90
1626;DHT22;806;48.770;9.156;2022-12-10T00:36:46;3.30;99.90
1626;DHT22;806;48.770;9.156;2022-12-10T00:39:17;3.20;99.90
1626;DHT22;806;48.770;9.156;2022-12-10T00:41:45;3.10;99.90
1626;DHT22;806;48.770;9.156;2022-12-10T00:44:13;3.10;99.90
1626;DHT22;806;48.770;9.156;2022-12-10T00:46:40;3.20;99.90
1626;DHT22;806;48.770;9.156;2022-12-10T00:49:07;3.20;99.90
1626;DHT22;806;48.770;9.156;2022-12-10T00:51:34;3.20;99.90
1626;DHT22;806;48.770;9.156;2022-12-10T00:54:01;3.20;99.90
1626;DHT22;806;48.770;9.156;2022-12-10T00:56:30;3.00;99.90
1626;DHT22;806;48.770;9.156;2022-12-10T00:58:59;3.20;99.90
1626;DHT22;806;48.770;9.156;2022-12-10T01:01:28;3.20;99.90
1626;DHT22;806;48.770;9.156;2022-12-10T01:03:58;3.30;99.90
1626;DHT22;806;48.770;9.156;2022-12-10T01:06:27;3.20;99.90
1626;DHT22;806;48.770;9.156;2022-12-10T01:08:57;3.10;99.90
1626;DHT22;806;48.770;9.156;2022-12-10T01:11:26;3.30;99.90
1626;DHT22;806;48.770;9.156;2022-12-10T01:13:56;3.40;99.90
1626;DHT22;806;48.770;9.156;2022-12-10T01:16:23;3.40;99.90
1626;DHT22;806;48.770;9.156;2022-12-10T01:18:53;3.40;99.90
1626;DHT22;806;48.770;9.156;2022-12-10T01:21:20;3.40;99.90
1626;DHT22;806;48.770;9.156;2022-12-10T01:23:49;3.40;99.90
1626;DHT22;806;48.770;9.156;2022-12-10T01:26:17;3.60;99.90
1626;DHT22;806;48.770;9.156;2022-12-10T01:28:45;3.60;99.90
1626;DHT22;806;48.770;9.156;2022-12-10T01:31:15;3.50;99.90
1626;DHT22;806;48.770;9.156;2022-12-10T01:33:43;3.60;99.90
1626;DHT22;806;48.770;9.156;2022-12-10T01:36:12;3.60;99.90
1626;DHT22;806;48.770;9.156;2022-12-10T01:38:40;3.50;99.90
1626;DHT22;806;48.770;9.156;2022-12-10T01:41:10;3.30;99.90
1626;DHT22;806;48.770;9.156;2022-12-10T01:43:55;3.20;99.90
1626;DHT22;806;48.770;9.156;2022-12-10T01:46:24;3.20;99.90
1626;DHT22;806;48.770;9.156;2022-12-10T01:48:52;3.20;99.90
1626;DHT22;806;48.770;9.156;2022-12-10T01:51:20;3.40;99.90
1626;DHT22;806;48.770;9.156;2022-12-10T01:53:47;3.50;99.90
1626;DHT22;806;48.770;9.156;2022-12-10T01:56:16;3.70;99.90
1626;DHT22;806;48.770;9.156;2022-12-10T01:58:43;3.70;99.90
1626;DHT22;806;48.770;9.156;2022-12-10T02:01:13;3.60;99.90
1626;DHT22;806;48.770;9.156;2022-12-10T02:03:56;3.50;99.90
1626;DHT22;806;48.770;9.156;2022-12-10T02:06:31;3.50;99.90
1626;DHT22;806;48.770;9.156;2022-12-10T02:09:07;3.50;99.90
1626;DHT22;806;48.770;9.156;2022-12-10T02:11:40;3.50;99.90
1626;DHT22;806;48.770;9.156;2022-12-10T02:14:13;3.50;99.90
1626;DHT22;806;48.770;9.156;2022-12-10T02:16:46;3.40;99.90
1626;DHT22;806;48.770;9.156;2022-12-10T02:19:22;3.40;99.90
1626;DHT22;806;48.770;9.156;2022-12-10T02:21:54;3.20;99.90
1626;DHT22;806;48.770;9.156;2022-12-10T02:24:24;3.30;99.90
1626;DHT22;806;48.770;9.156;2022-12-10T02:27:02;3.20;99.90
1626;DHT22;806;48.770;9.156;2022-12-10T02:29:34;3.30;99.90
1626;DHT22;806;48.770;9.156;2022-12-10T02:32:05;3.30;99.90
1626;DHT22;806;48.770;9.156;2022-12-10T02:34:37;3.30;99.90
1626;DHT22;806;48.770;9.156;2022-12-10T02:37:08;3.10;99.90
1626;DHT22;806;48.770;9.156;2022-12-10T02:39:40;2.90;99.90
1626;DHT22;806;48.770;9.156;2022-12-10T02:42:09;2.80;99.90
1626;DHT22;806;48.770;9.156;2022-12-10T02:44:42;2.90;99.90
1626;DHT22;806;48.770;9.156;2022-12-10T02:47:11;3.10;99.90
1626;DHT22;806;48.770;9.156;2022-12-10T02:49:39;3.10;99.90
1626;DHT22;806;48.770;9.156;2022-12-10T02:52:08;3.30;99.90
1626;DHT22;806;48.770;9.156;2022-12-10T02:54:38;3.40;99.90
1626;DHT22;806;48.770;9.156;2022-12-10T02:57:20;3.40;99.90
1626;DHT22;806;48.770;9.156;2022-12-10T03:00:07;3.40;99.90
1626;DHT22;806;48.770;9.156;2022-12-10T03:02:43;3.20;99.90
1626;DHT22;806;48.770;9.156;2022-12-10T03:05:17;3.00;99.90
1626;DHT22;806;48.770;9.156;2022-12-10T03:07:52;3.10;99.90
1626;DHT22;806;48.770;9.156;2022-12-10T03:10:26;3.10;99.90
1626;DHT22;806;48.770;9.156;2022-12-10T03:12:57;3.10;99.90
1626;DHT22;806;48.770;9.156;2022-12-10T03:15:32;3.10;99.90
1626;DHT22;806;48.770;9.156;2022-12-10T03:18:02;3.10;99.90
1626;DHT22;806;48.770;9.156;2022-12-10T03:20:30;3.30;99.90
1626;DHT22;806;48.770;9.156;2022-12-10T03:22:59;3.50;99.90
1626;DHT22;806;48.770;9.156;2022-12-10T03:25:29;3.40;99.90
1626;DHT22;806;48.770;9.156;2022-12-10T03:27:58;3.30;99.90
1626;DHT22;806;48.770;9.156;2022-12-10T03:30:26;3.20;99.90
1626;DHT22;806;48.770;9.156;2022-12-10T03:32:56;3.20;99.90
1626;DHT22;806;48.770;9.156;2022-12-10T03:35:24;3.10;99.90
1626;DHT22;806;48.770;9.156;2022-12-10T03:37:51;3.00;99.90
1626;DHT22;806;48.770;9.156;2022-12-10T03:40:21;2.90;99.90
1626;DHT22;806;48.770;9.156;2022-12-10T03:42:48;2.90;99.90
1626;DHT22;806;48.770;9.156;2022-12-10T03:45:15;2.90;99.90
1626;DHT22;806;48.770;9.156;2022-12-10T03:47:43;2.90;99.90
1626;DHT22;806;48.770;9.156;2022-12-10T03:50:11;2.90;99.90
1626;DHT22;806;48.770;9.156;2022-12-10T03:52:38;3.10;99.90
1626;DHT22;806;48.770;9.156;2022-12-10T03:55:05;3.20;99.90
1626;DHT22;806;48.770;9.156;2022-12-10T03:57:33;3.20;99.90
1626;DHT22;806;48.770;9.156;2022-12-10T04:00:00;3.30;99.90
1626;DHT22;806;48.770;9.156;2022-12-10T04:02:28;3.20;99.90
1626;DHT22;806;48.770;9.156;2022-12-10T04:04:55;3.30;99.90
1626;DHT22;806;48.770;9.156;2022-12-10T04:07:23;3.50;99.90
1626;DHT22;806;48.770;9.156;2022-12-10T04:09:50;3.40;99.90
1626;DHT22;806;48.770;9.156;2022-12-10T04:12:17;3.30;99.90
1626;DHT22;806;48.770;9.156;2022-12-10T04:14:44;3.20;99.90
1626;DHT22;806;48.770;9.156;2022-12-10T04:17:28;3.30;99.90
1626;DHT22;806;48.770;9.156;2022-12-10T04:19:55;3.40;99.90
1626;DHT22;806;48.770;9.156;2022-12-10T04:22:23;3.40;99.90
1626;DHT22;806;48.770;9.156;2022-12-10T04:25:09;3.40;99.90
1626;DHT22;806;48.770;9.156;2022-12-10T04:27:54;3.20;99.90
1626;DHT22;806;48.770;9.156;2022-12-10T04:30:21;2.80;99.90
1626;DHT22;806;48.770;9.156;2022-12-10T04:32:48;2.60;99.90
1626;DHT22;806;48.770;9.156;2022-12-10T04:35:15;2.50;99.90
1626;DHT22;806;48.770;9.156;2022-12-10T04:37:43;2.40;99.90
1626;DHT22;806;48.770;9.156;2022-12-10T04:40:11;2.30;99.90
1626;DHT22;806;48.770;9.156;2022-12-10T04:42:38;2.50;99.90
1626;DHT22;806;48.770;9.156;2022-12-10T04:45:05;2.60;99.90
1626;DHT22;806;48.770;9.156;2022-12-10T04:47:32;2.80;99.90
1626;DHT22;806;48.770;9.156;2022-12-10T04:49:59;3.00;99.90
1626;DHT22;806;48.770;9.156;2022-12-10T04:52:26;3.10;99.90
1626;DHT22;806;48.770;9.156;2022-12-10T04:54:54;3.00;99.90
1626;DHT22;806;48.770;9.156;2022-12-10T04:57:21;3.20;99.90
1626;DHT22;806;48.770;9.156;2022-12-10T04:59:48;3.30;99.90
1626;DHT22;806;48.770;9.156;2022-12-10T05:02:15;3.20;99.90
1626;DHT22;806;48.770;9.156;2022-12-10T05:04:42;3.20;99.90
1626;DHT22;806;48.770;9.156;2022-12-10T05:07:09;3.20;99.90
1626;DHT22;806;48.770;9.156;2022-12-10T05:09:37;3.20;99.90
1626;DHT22;806;48.770;9.156;2022-12-10T05:12:06;3.50;99.90
1626;DHT22;806;48.770;9.156;2022-12-10T05:14:33;3.60;99.90
1626;DHT22;806;48.770;9.156;2022-12-10T05:17:00;3.40;99.90
1626;DHT22;806;48.770;9.156;2022-12-10T05:19:27;3.10;99.90
1626;DHT22;806;48.770;9.156;2022-12-10T05:21:54;2.70;99.90
1626;DHT22;806;48.770;9.156;2022-12-10T05:24:38;2.50;99.90
1626;DHT22;806;48.770;9.156;2022-12-10T05:27:07;2.40;99.90
1626;DHT22;806;48.770;9.156;2022-12-10T05:29:34;2.50;99.90
1626;DHT22;806;48.770;9.156;2022-12-10T05:32:02;2.70;99.90
1626;DHT22;806;48.770;9.156;2022-12-10T05:34:29;2.80;99.90
1626;DHT22;806;48.770;9.156;2022-12-10T05:36:56;3.00;99.90
1626;DHT22;806;48.770;9.156;2022-12-10T05:39:23;3.10;99.90
1626;DHT22;806;48.770;9.156;2022-12-10T05:41:52;3.10;99.90
1626;DHT22;806;48.770;9.156;2022-12-10T05:44:26;3.00;99.90
1626;DHT22;806;48.770;9.156;2022-12-10T05:46:53;3.00;99.90
1626;DHT22;806;48.770;9.156;2022-12-10T05:49:20;3.20;99.90
1626;DHT22;806;48.770;9.156;2022-12-10T05:51:47;3.20;99.90
1626;DHT22;806;48.770;9.156;2022-12-10T05:54:13;3.10;99.90
1626;DHT22;806;48.770;9.156;2022-12-10T05:56:40;3.00;99.90
1626;DHT22;806;48.770;9.156;2022-12-10T05:59:08;2.90;99.90
1626;DHT22;806;48.770;9.156;2022-12-10T06:01:37;2.90;99.90
1626;DHT22;806;48.770;9.156;2022-12-10T06:04:04;2.90;99.90
1626;DHT22;806;48.770;9.156;2022-12-10T06:06:34;2.70;99.90
1626;DHT22;806;48.770;9.156;2022-12-10T06:09:02;2.90;99.90
1626;DHT22;806;48.770;9.156;2022-12-10T06:11:29;2.70;99.90
1626;DHT22;806;48.770;9.156;2022-12-10T06:13:57;2.60;99.90
1626;DHT22;806;48.770;9.156;2022-12-10T06:16:26;2.60;99.90
1626;DHT22;806;48.770;9.156;2022-12-10T06:18:54;2.50;99.90
1626;DHT22;806;48.770;9.156;2022-12-10T06:21:21;2.60;99.90
1626;DHT22;806;48.770;9.156;2022-12-10T06:23:49;2.60;99.90
1626;DHT22;806;48.770;9.156;2022-12-10T06:26:18;2.60;99.90
1626;DHT22;806;48.770;9.156;2022-12-10T06:28:46;2.50;99.90
1626;DHT22;806;48.770;9.156;2022-12-10T06:31:13;2.50;99.90
1626;DHT22;806;48.770;9.156;2022-12-10T06:33:41;2.60;99.90
1626;DHT22;806;48.770;9.156;2022-12-10T06:36:11;2.80;99.90
1626;DHT22;806;48.770;9.156;2022-12-10T06:38:38;2.80;99.90
1626;DHT22;806;48.770;9.156;2022-12-10T06:41:06;2.70;99.90
1626;DHT22;806;48.770;9.156;2022-12-10T06:43:34;2.90;99.90
1626;DHT22;806;48.770;9.156;2022-12-10T06:46:04;2.90;99.90
1626;DHT22;806;48.770;9.156;2022-12-10T06:48:32;2.90;99.90
1626;DHT22;806;48.770;9.156;2022-12-10T06:50:59;2.80;99.90
1626;DHT22;806;48.770;9.156;2022-12-10T06:53:27;2.80;99.90
1626;DHT22;806;48.770;9.156;2022-12-10T06:55:57;2.60;99.90
1626;DHT22;806;48.770;9.156;2022-12-10T06:58:24;2.50;99.90
1626;DHT22;806;48.770;9.156;2022-12-10T07:00:51;2.60;99.90
1626;DHT22;806;48.770;9.156;2022-12-10T07:03:18;2.60;99.90
1626;DHT22;806;48.770;9.156;2022-12-10T07:05:44;2.50;99.90
1626;DHT22;806;48.770;9.156;2022-12-10T07:08:13;2.80;99.90
1626;DHT22;806;48.770;9.156;2022-12-10T07:10:41;3.60;99.90
1626;DHT22;806;48.770;9.156;2022-12-10T07:13:08;3.90;99.90
1626;DHT22;806;48.770;9.156;2022-12-10T07:15:35;4.30;99.90
1626;DHT22;806;48.770;9.156;2022-12-10T07:18:02;4.50;99.90
1626;DHT22;806;48.770;9.156;2022-12-10T07:20:30;4.40;99.90
1626;DHT22;806;48.770;9.156;2022-12-10T07:22:57;3.90;99.90
1626;DHT22;806;48.770;9.156;2022-12-10T07:25:24;3.30;99.90
1626;DHT22;806;48.770;9.156;2022-12-10T07:27:52;3.00;99.90
1626;DHT22;806;48.770;9.156;2022-12-10T07:30:19;2.70;99.90
1626;DHT22;806;48.770;9.156;2022-12-10T07:32:46;2.50;99.90
1626;DHT22;806;48.770;9.156;2022-12-10T07:35:13;2.40;99.90
1626;DHT22;806;48.770;9.156;2022-12-10T07:37:40;2.60;99.90
1626;DHT22;806;48.770;9.156;2022-12-10T07:40:08;2.60;99.90
1626;DHT22;806;48.770;9.156;2022-12-10T07:42:35;2.60;99.90
1626;DHT22;806;48.770;9.156;2022-12-10T07:45:04;2.70;99.90
1626;DHT22;806;48.770;9.156;2022-12-10T07:47:31;2.80;99.90
1626;DHT22;806;48.770;9.156;2022-12-10T07:50:01;2.70;99.90
1626;DHT22;806;48.770;9.156;2022-12-10T07:52:27;2.50;99.90
1626;DHT22;806;48.770;9.156;2022-12-10T07:54:54;2.40;99.90
1626;DHT22;806;48.770;9.156;2022-12-10T07:57:21;2.80;99.90
1626;DHT22;806;48.770;9.156;2022-12-10T07:59:48;3.10;99.90
1626;DHT22;806;48.770;9.156;2022-12-10T08:02:17;3.20;99.90
1626;DHT22;806;48.770;9.156;2022-12-10T08:04:45;3.30;99.90
1626;DHT22;806;48.770;9.156;2022-12-10T08:07:12;3.40;99.90
1626;DHT22;806;48.770;9.156;2022-12-10T08:09:39;3.40;99.90
1626;DHT22;806;48.770;9.156;2022-12-10T08:12:06;3.40;99.90
1626;DHT22;806;48.770;9.156;2022-12-10T08:14:33;3.50;99.90
1626;DHT22;806;48.770;9.156;2022-12-10T08:16:59;3.50;99.90
1626;DHT22;806;48.770;9.156;2022-12-10T08:19:28;3.50;99.90
1626;DHT22;806;48.770;9.156;2022-12-10T08:21:55;3.40;99.90
1626;DHT22;806;48.770;9.156;2022-12-10T08:24:21;3.40;99.90
1626;DHT22;806;48.770;9.156;2022-12-10T08:26:48;3.50;99.90
1626;DHT22;806;48.770;9.156;2022-12-10T08:29:15;3.40;99.90
1626;DHT22;806;48.770;9.156;2022-12-10T08:31:42;3.40;99.90
1626;DHT22;806;48.770;9.156;2022-12-10T08:34:12;3.30;99.90
1626;DHT22;806;48.770;9.156;2022-12-10T08:36:41;3.20;99.90
1626;DHT22;806;48.770;9.156;2022-12-10T08:39:08;3.30;99.90
1626;DHT22;806;48.770;9.156;2022-12-10T08:41:40;3.10;99.90
1626;DHT22;806;48.770;9.156;2022-12-10T08:44:07;3.20;99.90
1626;DHT22;806;48.770;9.156;2022-12-10T08:46:34;3.30;99.90
1626;DHT22;806;48.770;9.156;2022-12-10T08:49:01;3.60;99.90
1626;DHT22;806;48.770;9.156;2022-12-10T08:51:29;3.50;99.90
1626;DHT22;806;48.770;9.156;2022-12-10T08:53:57;3.60;99.90
1626;DHT22;806;48.770;9.156;2022-12-10T08:56:24;3.80;99.90
1626;DHT22;806;48.770;9.156;2022-12-10T08:58:51;3.70;99.90
1626;DHT22;806;48.770;9.156;2022-12-10T09:01:18;3.70;99.90
1626;DHT22;806;48.770;9.156;2022-12-10T09:03:45;3.50;99.90
1626;DHT22;806;48.770;9.156;2022-12-10T09:06:14;3.70;99.90
1626;DHT22;806;48.770;9.156;2022-12-10T09:08:42;3.80;99.90
1626;DHT22;806;48.770;9.156;2022-12-10T09:11:13;3.70;99.90
1626;DHT22;806;48.770;9.156;2022-12-10T09:13:41;3.80;99.90
1626;DHT22;806;48.770;9.156;2022-12-10T09:16:08;3.80;99.90
1626;DHT22;806;48.770;9.156;2022-12-10T09:18:35;3.80;99.90
1626;DHT22;806;48.770;9.156;2022-12-10T09:21:05;3.80;99.90
1626;DHT22;806;48.770;9.156;2022-12-10T09:23:32;3.70;99.90
1626;DHT22;806;48.770;9.156;2022-12-10T09:25:59;3.60;99.90
1626;DHT22;806;48.770;9.156;2022-12-10T09:28:27;3.60;99.90
1626;DHT22;806;48.770;9.156;2022-12-10T09:30:59;3.70;99.90
1626;DHT22;806;48.770;9.156;2022-12-10T09:33:27;3.60;99.90
1626;DHT22;806;48.770;9.156;2022-12-10T09:35:54;3.40;99.90
1626;DHT22;806;48.770;9.156;2022-12-10T09:38:21;3.30;99.90
1626;DHT22;806;48.770;9.156;2022-12-10T09:40:51;3.20;99.90
1626;DHT22;806;48.770;9.156;2022-12-10T09:43:28;3.20;99.90
1626;DHT22;806;48.770;9.156;2022-12-10T09:46:06;3.20;99.90
1626;DHT22;806;48.770;9.156;2022-12-10T09:48:44;3.30;99.90
1626;DHT22;806;48.770;9.156;2022-12-10T09:51:19;3.40;99.90
1626;DHT22;806;48.770;9.156;2022-12-10T09:53:48;3.60;99.90
1626;DHT22;806;48.770;9.156;2022-12-10T09:56:21;3.70;99.90
1626;DHT22;806;48.770;9.156;2022-12-10T09:58:50;3.70;99.90
1626;DHT22;806;48.770;9.156;2022-12-10T10:01:19;3.50;99.90
1626;DHT22;806;48.770;9.156;2022-12-10T10:03:48;3.30;99.90
1626;DHT22;806;48.770;9.156;2022-12-10T10:06:15;3.10;99.90
1626;DHT22;806;48.770;9.156;2022-12-10T10:08:45;2.90;99.90
1626;DHT22;806;48.770;9.156;2022-12-10T10:11:16;2.80;99.90
1626;DHT22;806;48.770;9.156;2022-12-10T10:13:46;2.80;99.90
1626;DHT22;806;48.770;9.156;2022-12-10T10:16:25;3.00;99.90
1626;DHT22;806;48.770;9.156;2022-12-10T10:18:57;3.30;99.90
1626;DHT22;806;48.770;9.156;2022-12-10T10:21:26;3.60;99.90
1626;DHT22;806;48.770;9.156;2022-12-10T10:23:54;3.50;99.90
1626;DHT22;806;48.770;9.156;2022-12-10T10:26:23;3.40;99.90
1626;DHT22;806;48.770;9.156;2022-12-10T10:28:56;3.30;99.90
1626;DHT22;806;48.770;9.156;2022-12-10T10:31:26;3.40;99.90
1626;DHT22;806;48.770;9.156;2022-12-10T10:33:56;3.10;99.90
1626;DHT22;806;48.770;9.156;2022-12-10T10:36:26;3.10;99.90
1626;DHT22;806;48.770;9.156;2022-12-10T10:38:53;3.10;99.90
1626;DHT22;806;48.770;9.156;2022-12-10T10:41:22;3.20;99.90
1626;DHT22;806;48.770;9.156;2022-12-10T10:43:58;3.40;99.90
1626;DHT22;806;48.770;9.156;2022-12-10T10:46:28;3.70;99.90
1626;DHT22;806;48.770;9.156;2022-12-10T10:49:19;3.90;99.90
1626;DHT22;806;48.770;9.156;2022-12-10T10:51:48;3.70;99.90
1626;DHT22;806;48.770;9.156;2022-12-10T10:54:32;3.80;99.90
1626;DHT22;806;48.770;9.156;2022-12-10T10:57:02;3.90;99.90
1626;DHT22;806;48.770;9.156;2022-12-10T10:59:32;4.00;99.90
1626;DHT22;806;48.770;9.156;2022-12-10T11:02:04;4.10;99.90
1626;DHT22;806;48.770;9.156;2022-12-10T11:04:36;4.20;99.90
1626;DHT22;806;48.770;9.156;2022-12-10T11:07:05;4.20;99.90
1626;DHT22;806;48.770;9.156;2022-12-10T11:09:38;4.20;99.90
1626;DHT22;806;48.770;9.156;2022-12-10T11:12:27;3.80;99.90
1626;DHT22;806;48.770;9.156;2022-12-10T11:14:55;3.60;99.90
1626;DHT22;806;48.770;9.156;2022-12-10T11:17:25;3.20;99.90
1626;DHT22;806;48.770;9.156;2022-12-10T11:19:58;3.30;99.90
1626;DHT22;806;48.770;9.156;2022-12-10T11:22:27;3.70;99.90
1626;DHT22;806;48.770;9.156;2022-12-10T11:24:55;3.80;99.90
1626;DHT22;806;48.770;9.156;2022-12-10T11:27:37;3.90;99.90
1626;DHT22;806;48.770;9.156;2022-12-10T11:30:11;3.80;99.90
1626;DHT22;806;48.770;9.156;2022-12-10T11:32:50;3.60;99.90
1626;DHT22;806;48.770;9.156;2022-12-10T11:35:28;3.70;99.90
1626;DHT22;806;48.770;9.156;2022-12-10T11:38:07;4.00;99.90
1626;DHT22;806;48.770;9.156;2022-12-10T11:40:42;4.20;99.90
1626;DHT22;806;48.770;9.156;2022-12-10T11:43:24;4.30;99.90
1626;DHT22;806;48.770;9.156;2022-12-10T11:46:02;4.20;99.90
1626;DHT22;806;48.770;9.156;2022-12-10T11:48:51;4.00;99.90
1626;DHT22;806;48.770;9.156;2022-12-10T11:51:27;3.90;99.90
1626;DHT22;806;48.770;9.156;2022-12-10T11:54:07;3.80;99.90
1626;DHT22;806;48.770;9.156;2022-12-10T11:56:40;3.90;99.90
1626;DHT22;806;48.770;9.156;2022-12-10T11:59:19;3.90;99.90
1626;DHT22;806;48.770;9.156;2022-12-10T12:02:03;3.90;99.90
1626;DHT22;806;48.770;9.156;2022-12-10T12:04:42;3.90;99.90
1626;DHT22;806;48.770;9.156;2022-12-10T12:07:35;3.80;99.90
1626;DHT22;806;48.770;9.156;2022-12-10T12:10:34;3.90;99.90
1626;DHT22;806;48.770;9.156;2022-12-10T12:13:05;4.00;99.90
1626;DHT22;806;48.770;9.156;2022-12-10T12:15:38;4.10;99.90
1626;DHT22;806;48.770;9.156;2022-12-10T12:18:14;4.10;99.90
1626;DHT22;806;48.770;9.156;2022-12-10T12:20:48;4.20;99.90
1626;DHT22;806;48.770;9.156;2022-12-10T12:23:21;4.30;99.90
1626;DHT22;806;48.770;9.156;2022-12-10T12:25:55;4.30;99.90
1626;DHT22;806;48.770;9.156;2022-12-10T12:28:26;4.10;99.90
1626;DHT22;806;48.770;9.156;2022-12-10T12:31:01;4.20;99.90
1626;DHT22;806;48.770;9.156;2022-12-10T12:33:34;4.10;99.90
1626;DHT22;806;48.770;9.156;2022-12-10T12:36:11;4.30;99.90
1626;DHT22;806;48.770;9.156;2022-12-10T12:38:45;4.30;99.90
1626;DHT22;806;48.770;9.156;2022-12-10T12:41:17;4.30;99.90
1626;DHT22;806;48.770;9.156;2022-12-10T12:43:52;4.50;99.90
1626;DHT22;806;48.770;9.156;2022-12-10T12:46:29;4.60;99.90
1626;DHT22;806;48.770;9.156;2022-12-10T12:49:00;4.50;99.90
1626;DHT22;806;48.770;9.156;2022-12-10T12:51:32;4.60;99.90
1626;DHT22;806;48.770;9.156;2022-12-10T12:54:00;4.70;99.90
1626;DHT22;806;48.770;9.156;2022-12-10T12:56:41;4.60;99.90
1626;DHT22;806;48.770;9.156;2022-12-10T12:59:19;4.50;99.90
1626;DHT22;806;48.770;9.156;2022-12-10T13:01:54;4.50;99.90
1626;DHT22;806;48.770;9.156;2022-12-10T13:04:24;4.40;99.90
1626;DHT22;806;48.770;9.156;2022-12-10T13:09:51;4.00;99.90
1626;DHT22;806;48.770;9.156;2022-12-10T13:12:28;3.90;99.90
1626;DHT22;806;48.770;9.156;2022-12-10T13:15:16;3.80;99.90
1626;DHT22;806;48.770;9.156;2022-12-10T13:18:16;3.70;99.90
1626;DHT22;806;48.770;9.156;2022-12-10T13:20:47;3.80;99.90
1626;DHT22;806;48.770;9.156;2022-12-10T13:23:30;3.90;99.90
1626;DHT22;806;48.770;9.156;2022-12-10T13:26:01;3.70;99.90
1626;DHT22;806;48.770;9.156;2022-12-10T13:28:39;3.70;99.90
1626;DHT22;806;48.770;9.156;2022-12-10T13:31:35;3.80;99.90
1626;DHT22;806;48.770;9.156;2022-12-10T13:34:21;3.90;99.90
1626;DHT22;806;48.770;9.156;2022-12-10T13:37:17;3.80;99.90
1626;DHT22;806;48.770;9.156;2022-12-10T13:39:53;3.80;99.90
1626;DHT22;806;48.770;9.156;2022-12-10T13:42:29;3.80;99.90
1626;DHT22;806;48.770;9.156;2022-12-10T13:45:31;3.60;99.90
1626;DHT22;806;48.770;9.156;2022-12-10T13:48:30;3.40;99.90
1626;DHT22;806;48.770;9.156;2022-12-10T13:51:16;3.30;99.90
1626;DHT22;806;48.770;9.156;2022-12-10T13:53:54;3.20;99.90
1626;DHT22;806;48.770;9.156;2022-12-10T13:56:28;2.90;99.90
1626;DHT22;806;48.770;9.156;2022-12-10T13:59:13;3.00;99.90
1626;DHT22;806;48.770;9.156;2022-12-10T14:01:47;3.20;99.90
1626;DHT22;806;48.770;9.156;2022-12-10T14:04:44;3.40;99.90
1626;DHT22;806;48.770;9.156;2022-12-10T14:07:14;3.50;99.90
1626;DHT22;806;48.770;9.156;2022-12-10T14:09:46;3.60;99.90
1626;DHT22;806;48.770;9.156;2022-12-10T14:12:17;3.50;99.90
1626;DHT22;806;48.770;9.156;2022-12-10T14:14:50;3.30;99.90
1626;DHT22;806;48.770;9.156;2022-12-10T14:17:21;3.30;99.90
1626;DHT22;806;48.770;9.156;2022-12-10T14:19:52;3.40;99.90
1626;DHT22;806;48.770;9.156;2022-12-10T14:22:29;3.50;99.90
1626;DHT22;806;48.770;9.156;2022-12-10T14:24:59;3.20;99.90
1626;DHT22;806;48.770;9.156;2022-12-10T14:27:27;3.30;99.90
1626;DHT22;806;48.770;9.156;2022-12-10T14:30:00;3.00;99.90
1626;DHT22;806;48.770;9.156;2022-12-10T14:32:31;3.20;99.90
1626;DHT22;806;48.770;9.156;2022-12-10T14:35:00;3.40;99.90
1626;DHT22;806;48.770;9.156;2022-12-10T14:37:31;3.40;99.90
1626;DHT22;806;48.770;9.156;2022-12-10T14:40:01;3.30;99.90
1626;DHT22;806;48.770;9.156;2022-12-10T14:42:30;3.20;99.90
1626;DHT22;806;48.770;9.156;2022-12-10T14:45:03;3.20;99.90
1626;DHT22;806;48.770;9.156;2022-12-10T14:47:35;3.20;99.90
1626;DHT22;806;48.770;9.156;2022-12-10T14:50:03;3.00;99.90
1626;DHT22;806;48.770;9.156;2022-12-10T14:52:40;2.80;99.90
1626;DHT22;806;48.770;9.156;2022-12-10T14:55:12;2.80;99.90
1626;DHT22;806;48.770;9.156;2022-12-10T14:57:42;3.00;99.90
1626;DHT22;806;48.770;9.156;2022-12-10T15:00:14;3.00;99.90
1626;DHT22;806;48.770;9.156;2022-12-10T15:02:44;3.00;99.90
1626;DHT22;806;48.770;9.156;2022-12-10T15:05:12;3.00;99.90
1626;DHT22;806;48.770;9.156;2022-12-10T15:07:42;2.90;99.90
1626;DHT22;806;48.770;9.156;2022-12-10T15:10:17;2.90;99.90
1626;DHT22;806;48.770;9.156;2022-12-10T15:12:48;2.70;99.90
1626;DHT22;806;48.770;9.156;2022-12-10T15:15:22;2.60;99.90
1626;DHT22;806;48.770;9.156;2022-12-10T15:17:57;2.50;99.90
1626;DHT22;806;48.770;9.156;2022-12-10T15:20:26;2.10;99.90
1626;DHT22;806;48.770;9.156;2022-12-10T15:23:07;2.00;99.90
1626;DHT22;806;48.770;9.156;2022-12-10T15:25:41;2.10;99.90
1626;DHT22;806;48.770;9.156;2022-12-10T15:28:22;2.10;99.90
1626;DHT22;806;48.770;9.156;2022-12-10T15:30:54;2.00;99.90
1626;DHT22;806;48.770;9.156;2022-12-10T15:33:28;2.10;99.90
1626;DHT22;806;48.770;9.156;2022-12-10T15:35:57;2.00;99.90
1626;DHT22;806;48.770;9.156;2022-12-10T15:38:25;2.20;99.90
1626;DHT22;806;48.770;9.156;2022-12-10T15:40:57;2.30;99.90
1626;DHT22;806;48.770;9.156;2022-12-10T15:43:27;2.40;99.90
1626;DHT22;806;48.770;9.156;2022-12-10T15:46:01;2.30;99.90
1626;DHT22;806;48.770;9.156;2022-12-10T15:48:31;2.20;99.90
1626;DHT22;806;48.770;9.156;2022-12-10T15:50:58;2.10;99.90
1626;DHT22;806;48.770;9.156;2022-12-10T15:53:27;2.00;99.90
1626;DHT22;806;48.770;9.156;2022-12-10T15:55:55;2.00;99.90
1626;DHT22;806;48.770;9.156;2022-12-10T15:58:22;2.00;99.90
1626;DHT22;806;48.770;9.156;2022-12-10T16:00:49;2.10;99.90
1626;DHT22;806;48.770;9.156;2022-12-10T16:03:18;2.10;99.90
1626;DHT22;806;48.770;9.156;2022-12-10T16:05:46;2.10;99.90
1626;DHT22;806;48.770;9.156;2022-12-10T16:08:17;2.20;99.90
1626;DHT22;806;48.770;9.156;2022-12-10T16:10:46;2.20;99.90
1626;DHT22;806;48.770;9.156;2022-12-10T16:13:16;2.20;99.90
1626;DHT22;806;48.770;9.156;2022-12-10T16:15:45;2.00;99.90
1626;DHT22;806;48.770;9.156;2022-12-10T16:18:13;2.10;99.90
1626;DHT22;806;48.770;9.156;2022-12-10T16:20:41;2.10;99.90
1626;DHT22;806;48.770;9.156;2022-12-10T16:23:09;2.20;99.90
1626;DHT22;806;48.770;9.156;2022-12-10T16:25:38;2.10;99.90
1626;DHT22;806;48.770;9.156;2022-12-10T16:28:10;2.10;99.90
1626;DHT22;806;48.770;9.156;2022-12-10T16:30:42;2.30;99.90
1626;DHT22;806;48.770;9.156;2022-12-10T16:33:09;2.30;99.90
1626;DHT22;806;48.770;9.156;2022-12-10T16:35:38;2.30;99.90
1626;DHT22;806;48.770;9.156;2022-12-10T16:38:07;2.20;99.90
1626;DHT22;806;48.770;9.156;2022-12-10T16:40:38;2.20;99.90
1626;DHT22;806;48.770;9.156;2022-12-10T16:43:06;2.00;99.90
1626;DHT22;806;48.770;9.156;2022-12-10T16:45:38;2.00;99.90
1626;DHT22;806;48.770;9.156;2022-12-10T16:48:05;2.10;99.90
1626;DHT22;806;48.770;9.156;2022-12-10T16:50:33;2.00;99.90
1626;DHT22;806;48.770;9.156;2022-12-10T16:53:05;2.00;99.90
1626;DHT22;806;48.770;9.156;2022-12-10T16:55:34;2.10;99.90
1626;DHT22;806;48.770;9.156;2022-12-10T16:58:04;2.10;99.90
1626;DHT22;806;48.770;9.156;2022-12-10T17:00:33;1.90;99.90
1626;DHT22;806;48.770;9.156;2022-12-10T17:02:59;1.80;99.90